Time;durP1;ratioP1;P1;durP2;ratioP2;P2;SDS_P1;SDS_P2;PMS_P1;PMS_P2;Temp;Humidity;BMP_temperature;BMP_pressure;BME280_temperature;BME280_humidity;BME280_pressure;Samples;Min_cycle;Max_cycle;Signal;HPM_P1;HPM_P2
2023/10/26 00:00:44;;;;;;;2.37;1.27;;;;;;;13.33;100.00;97156.56;4469906;32;20096;-80
2023/10/26 00:03:12;;;;;;;4.68;1.37;;;;;;;13.32;100.00;97147.88;4469901;32;20626;-80
2023/10/26 00:05:39;;;;;;;5.10;1.30;;;;;;;13.23;100.00;97143.78;4469979;32;20466;-80
2023/10/26 00:08:07;;;;;;;1.35;1.02;;;;;;;13.16;100.00;97136.84;4469802;32;20097;-80
2023/10/26 00:10:38;;;;;;;4.00;1.40;;;;;;;13.06;100.00;97138.00;4469966;32;20141;-80
2023/10/26 00:13:06;;;;;;;6.40;1.50;;;;;;;13.02;100.00;97128.91;4470289;32;20068;-80
2023/10/26 00:15:35;;;;;;;6.25;1.20;;;;;;;12.95;100.00;97130.69;4470787;32;20096;-80
2023/10/26 00:18:05;;;;;;;6.85;1.60;;;;;;;12.94;100.00;97129.88;4485802;32;20518;-80
2023/10/26 00:20:32;;;;;;;3.58;1.35;;;;;;;12.88;100.00;97140.31;4485275;32;20159;-80
2023/10/26 00:23:01;;;;;;;1.40;1.05;;;;;;;12.85;100.00;97135.47;4485464;32;20450;-80
2023/10/26 00:25:29;;;;;;;2.62;1.33;;;;;;;12.78;100.00;97115.19;4485242;32;20125;-80
2023/10/26 00:27:56;;;;;;;5.32;1.55;;;;;;;12.73;100.00;97106.25;4485257;32;20126;-80
2023/10/26 00:30:24;;;;;;;1.90;1.25;;;;;;;12.65;100.00;97109.84;4485225;32;20529;-80
2023/10/26 00:32:51;;;;;;;3.17;1.50;;;;;;;12.62;100.00;97112.84;4485205;31;20469;-80
2023/10/26 00:35:20;;;;;;;5.57;1.50;;;;;;;12.64;100.00;97112.66;4485044;32;20477;-80
2023/10/26 00:37:48;;;;;;;6.53;1.65;;;;;;;12.59;100.00;97116.66;4485223;32;20123;-80
2023/10/26 00:40:16;;;;;;;2.35;1.25;;;;;;;12.52;100.00;97112.37;4485002;32;20110;-80
2023/10/26 00:42:43;;;;;;;4.03;1.67;;;;;;;12.51;100.00;97113.41;4485464;31;20096;-80
2023/10/26 00:45:11;;;;;;;4.97;1.10;;;;;;;12.55;100.00;97115.44;4484828;32;20100;-80
2023/10/26 00:47:38;;;;;;;5.65;1.30;;;;;;;12.53;100.00;97108.75;4484967;32;20158;-80
2023/10/26 00:50:07;;;;;;;4.40;1.20;;;;;;;12.54;100.00;97103.31;4485055;31;20618;-80
2023/10/26 00:52:36;;;;;;;1.20;1.10;;;;;;;12.52;100.00;97104.50;4485407;31;20160;-80
2023/10/26 00:55:04;;;;;;;3.92;1.12;;;;;;;12.57;100.00;97113.44;4485225;31;20092;-80
2023/10/26 00:57:34;;;;;;;4.35;1.30;;;;;;;12.75;100.00;97107.69;4483760;32;20481;-80
2023/10/26 01:00:05;;;;;;;4.35;1.37;;;;;;;12.75;100.00;97112.16;4485420;31;20152;-80
2023/10/26 01:02:34;;;;;;;1.75;1.08;;;;;;;12.77;100.00;97105.69;4485226;31;20151;-80
2023/10/26 01:05:03;;;;;;;4.85;1.37;;;;;;;12.85;100.00;97102.09;4485080;31;20097;-80
2023/10/26 01:07:31;;;;;;;1.90;1.00;;;;;;;12.82;100.00;97097.22;4484930;31;20096;-80
2023/10/26 01:10:00;;;;;;;2.22;1.35;;;;;;;12.78;100.00;97090.75;4483820;32;20080;-80
2023/10/26 01:12:27;;;;;;;4.30;1.42;;;;;;;12.71;100.00;97095.94;4485157;31;20595;-80
2023/10/26 01:14:55;;;;;;;3.00;1.20;;;;;;;12.70;100.00;97088.25;4484959;32;20155;-80
2023/10/26 01:17:24;;;;;;;3.35;1.33;;;;;;;12.71;100.00;97090.69;4472007;32;20176;-80
2023/10/26 01:19:56;;;;;;;3.08;1.25;;;;;;;12.65;100.00;97083.56;4469284;32;20097;-80
2023/10/26 01:22:31;;;;;;;2.67;1.27;;;;;;;12.60;100.00;97080.72;4469207;32;20085;-80
2023/10/26 01:24:59;;;;;;;6.65;1.62;;;;;;;12.57;100.00;97089.00;4469387;32;20111;-80
2023/10/26 01:27:27;;;;;;;3.92;1.42;;;;;;;12.58;100.00;97095.84;4471351;32;20454;-80
2023/10/26 01:29:55;;;;;;;5.57;1.35;;;;;;;12.59;100.00;97093.03;4485028;32;20092;-80
2023/10/26 01:32:28;;;;;;;3.95;1.70;;;;;;;12.56;100.00;97090.78;4485009;31;20084;-80
2023/10/26 01:34:57;;;;;;;3.12;1.58;;;;;;;12.55;100.00;97090.97;4484648;32;20089;-80
2023/10/26 01:37:26;;;;;;;3.58;1.30;;;;;;;12.50;100.00;97085.50;4484763;32;20157;-80
2023/10/26 01:39:58;;;;;;;5.28;1.55;;;;;;;12.48;100.00;97083.06;4484791;31;20088;-80
2023/10/26 01:42:26;;;;;;;3.60;1.40;;;;;;;12.40;100.00;97085.84;4484798;32;20089;-80
2023/10/26 01:44:53;;;;;;;2.92;1.30;;;;;;;12.36;100.00;97087.22;4484601;31;20096;-80
2023/10/26 01:47:20;;;;;;;4.50;1.58;;;;;;;12.36;100.00;97084.59;4484614;32;20122;-80
2023/10/26 01:49:48;;;;;;;3.95;1.20;;;;;;;12.40;100.00;97085.84;4484525;32;20080;-80
2023/10/26 01:52:16;;;;;;;4.25;1.15;;;;;;;12.34;100.00;97083.94;4484672;32;20126;-80
2023/10/26 01:54:43;;;;;;;3.80;1.50;;;;;;;12.33;100.00;97095.47;4484729;31;20089;-80
2023/10/26 01:57:11;;;;;;;5.97;1.77;;;;;;;12.36;100.00;97084.59;4484743;32;20417;-80
2023/10/26 01:59:40;;;;;;;6.40;1.60;;;;;;;12.34;100.00;97090.03;4484773;32;20133;-80
2023/10/26 02:02:08;;;;;;;7.95;1.35;;;;;;;12.30;100.00;97082.72;4484581;31;20126;-80
2023/10/26 02:04:35;;;;;;;4.37;1.73;;;;;;;12.30;100.00;97083.53;4484414;31;20127;-80
2023/10/26 02:07:02;;;;;;;4.22;1.05;;;;;;;12.35;100.00;97077.69;4484446;32;20156;-80
2023/10/26 02:09:30;;;;;;;2.08;1.30;;;;;;;12.35;100.00;97082.94;4484455;31;20092;-80
2023/10/26 02:11:58;;;;;;;4.78;1.70;;;;;;;12.32;100.00;97078.88;4484782;31;20100;-80
2023/10/26 02:14:26;;;;;;;3.55;1.50;;;;;;;12.39;100.00;97078.94;4484562;31;20085;-80
2023/10/26 02:16:55;;;;;;;3.60;1.30;;;;;;;12.34;100.00;97074.28;4474563;32;20096;-80
2023/10/26 02:19:23;;;;;;;2.75;1.33;;;;;;;12.34;100.00;97073.44;4468785;32;20100;-80
2023/10/26 02:21:51;;;;;;;6.22;1.62;;;;;;;12.29;100.00;97065.34;4468326;32;20084;-80
2023/10/26 02:24:18;;;;;;;2.22;1.20;;;;;;;12.25;100.00;97064.91;4468725;32;20352;-80
2023/10/26 02:26:47;;;;;;;4.03;1.40;;;;;;;12.20;100.00;97065.47;4468628;32;20450;-80
2023/10/26 02:29:15;;;;;;;5.00;1.17;;;;;;;12.13;100.00;97064.59;4482539;32;20108;-80
2023/10/26 02:31:42;;;;;;;2.40;1.35;;;;;;;12.13;100.00;97063.81;4484388;32;20122;-80
2023/10/26 02:34:10;;;;;;;4.28;1.65;;;;;;;12.10;100.00;97062.38;4483801;32;20154;-80
2023/10/26 02:36:37;;;;;;;3.35;2.28;;;;;;;12.06;100.00;97058.47;4484189;32;20118;-80
2023/10/26 02:39:05;;;;;;;5.00;1.35;;;;;;;12.04;100.00;97053.44;4484074;32;20105;-80
2023/10/26 02:41:33;;;;;;;6.60;1.90;;;;;;;11.99;100.00;97057.59;4483995;32;20085;-80
2023/10/26 02:44:01;;;;;;;3.08;1.30;;;;;;;11.96;100.00;97057.97;4484044;32;20112;-80
2023/10/26 02:46:28;;;;;;;3.37;1.20;;;;;;;11.99;100.00;97057.59;4483984;32;20152;-80
2023/10/26 02:48:57;;;;;;;2.83;1.50;;;;;;;11.97;100.00;97059.63;4483993;32;20104;-80
2023/10/26 02:51:25;;;;;;;7.72;1.80;;;;;;;11.92;100.00;97054.09;4483851;31;20093;-80
2023/10/26 02:53:52;;;;;;;5.75;1.50;;;;;;;11.97;100.00;97049.13;4484150;32;20648;-80
2023/10/26 02:56:20;;;;;;;6.15;1.37;;;;;;;11.94;100.00;97049.50;4484177;32;20522;-80
2023/10/26 02:58:50;;;;;;;2.45;1.30;;;;;;;11.85;100.00;97049.59;4483673;32;20097;-80
2023/10/26 03:01:17;;;;;;;8.20;1.75;;;;;;;11.82;100.00;97047.31;4483909;31;20104;-80
2023/10/26 03:03:44;;;;;;;3.53;1.40;;;;;;;11.81;100.00;97056.22;4483739;32;20455;-80
2023/10/26 03:06:12;;;;;;;9.57;1.65;;;;;;;11.80;100.00;97053.78;4483834;32;20152;-80
2023/10/26 03:08:39;;;;;;;5.15;1.37;;;;;;;11.88;100.00;97051.84;4483524;32;20182;-80
2023/10/26 03:11:06;;;;;;;3.72;1.60;;;;;;;11.93;100.00;97050.47;4483496;32;20092;-80
2023/10/26 03:13:34;;;;;;;9.18;1.65;;;;;;;12.00;100.00;97061.88;4483806;32;20108;-80
2023/10/26 03:16:01;;;;;;;3.72;1.30;;;;;;;12.03;100.00;97059.66;4479748;32;20122;-80
2023/10/26 03:18:29;;;;;;;6.82;1.35;;;;;;;12.01;100.00;97053.00;4467937;32;20149;-80
2023/10/26 03:20:58;;;;;;;6.72;1.42;;;;;;;12.02;100.00;97062.47;4468067;32;20093;-80
2023/10/26 03:23:25;;;;;;;5.40;1.70;;;;;;;12.01;100.00;97060.88;4468072;32;20119;-80
2023/10/26 03:25:52;;;;;;;3.75;1.42;;;;;;;12.04;100.00;97066.53;4467946;32;20108;-80
2023/10/26 03:28:20;;;;;;;6.32;1.60;;;;;;;12.01;100.00;97063.50;4475769;32;20118;-79
2023/10/26 03:30:47;;;;;;;3.92;1.50;;;;;;;12.01;100.00;97066.91;4483618;32;20105;-80
2023/10/26 03:33:14;;;;;;;3.20;1.60;;;;;;;11.93;100.00;97063.59;4484268;32;20104;-79
2023/10/26 03:35:41;;;;;;;5.35;1.30;;;;;;;11.99;100.00;97070.72;4486221;32;20096;-79
2023/10/26 03:38:08;;;;;;;6.80;1.70;;;;;;;12.00;100.00;97072.34;4484520;32;20100;-79
2023/10/26 03:40:35;;;;;;;3.15;1.50;;;;;;;11.94;100.00;97066.03;4485984;31;20088;-79
2023/10/26 03:43:03;;;;;;;2.22;1.60;;;;;;;11.94;100.00;97070.50;4486060;32;20101;-79
2023/10/26 03:45:31;;;;;;;7.00;1.80;;;;;;;11.95;100.00;97072.13;4486162;32;20148;-79
2023/10/26 03:47:59;;;;;;;2.28;1.40;;;;;;;11.90;100.00;97070.84;4485830;31;20087;-79
2023/10/26 03:50:27;;;;;;;4.47;1.52;;;;;;;11.80;100.00;97065.06;4485503;31;20107;-79
2023/10/26 03:52:54;;;;;;;4.00;1.67;;;;;;;11.77;100.00;97064.66;4485642;31;20164;-79
2023/10/26 03:55:22;;;;;;;4.45;1.40;;;;;;;11.75;100.00;97064.84;4484421;32;20104;-80
2023/10/26 03:57:50;;;;;;;6.12;1.55;;;;;;;11.71;100.00;97060.94;4485533;31;20100;-79
2023/10/26 04:00:18;;;;;;;5.40;1.50;;;;;;;11.67;100.00;97059.69;4485558;32;20084;-80
2023/10/26 04:02:45;;;;;;;6.07;2.00;;;;;;;11.63;100.00;97061.09;4485546;31;20096;-80
2023/10/26 04:05:12;;;;;;;3.05;1.58;;;;;;;11.62;100.00;97056.81;4485692;32;20112;-81
2023/10/26 04:07:39;;;;;;;4.82;1.65;;;;;;;11.68;100.00;97056.09;4485428;32;20404;-80
2023/10/26 04:10:08;;;;;;;3.03;1.40;;;;;;;11.75;100.00;97056.97;4485278;32;20108;-79
2023/10/26 04:12:35;;;;;;;2.22;1.25;;;;;;;11.76;100.00;97063.81;4485773;31;20100;-79
2023/10/26 04:15:03;;;;;;;3.08;1.60;;;;;;;11.84;100.00;97058.47;4485408;31;20551;-78
2023/10/26 04:17:32;;;;;;;1.85;1.30;;;;;;;11.83;100.00;97059.47;4471456;31;20096;-78
2023/10/26 04:19:59;;;;;;;4.47;1.98;;;;;;;11.88;100.00;97058.87;4470000;32;20142;-79
2023/10/26 04:22:27;;;;;;;2.85;1.67;;;;;;;11.99;100.00;97057.59;4469970;32;20101;-78
2023/10/26 04:24:54;;;;;;;5.10;1.85;;;;;;;11.99;100.00;97062.84;4469991;32;20602;-79
2023/10/26 04:27:21;;;;;;;4.43;1.90;;;;;;;12.02;100.00;97065.09;4470701;32;20159;-79
2023/10/26 04:29:48;;;;;;;6.12;1.75;;;;;;;12.02;100.00;97065.09;4484034;32;20168;-78
2023/10/26 04:32:16;;;;;;;7.60;1.80;;;;;;;11.98;100.00;97062.06;4484374;31;20116;-78
2023/10/26 04:34:44;;;;;;;2.67;1.60;;;;;;;12.02;100.00;97059.84;4484745;32;20083;-79
2023/10/26 04:37:12;;;;;;;4.07;1.50;;;;;;;12.02;100.00;97057.22;4485257;32;20118;-78
2023/10/26 04:39:43;;;;;;;11.50;2.00;;;;;;;12.03;100.00;97064.09;4485431;31;20088;-78
2023/10/26 04:42:11;;;;;;;9.90;4.43;;;;;;;12.09;100.00;97063.34;4485290;31;20787;-78
2023/10/26 04:44:40;;;;;;;6.97;3.08;;;;;;;12.11;100.00;97060.53;4484478;31;20118;-78
2023/10/26 04:47:09;;;;;;;6.57;1.85;;;;;;;12.12;100.00;97062.97;4484224;32;20205;-79
2023/10/26 04:49:37;;;;;;;4.03;2.47;;;;;;;12.14;100.00;97061.00;4484961;31;20167;-80
2023/10/26 04:52:04;;;;;;;6.37;2.90;;;;;;;12.15;100.00;97057.34;4484624;32;20174;-79
2023/10/26 04:54:34;;;;;;;11.82;4.25;;;;;;;12.06;100.00;97059.28;4484708;31;20096;-79
2023/10/26 04:57:01;;;;;;;4.68;1.77;;;;;;;12.14;100.00;97061.00;4483760;31;20163;-80
2023/10/26 04:59:28;;;;;;;4.50;2.47;;;;;;;12.15;100.00;97064.41;4483780;31;20437;-80
2023/10/26 05:01:55;;;;;;;5.95;2.42;;;;;;;12.20;100.00;97064.66;4475623;31;20126;-79
2023/10/26 05:04:23;;;;;;;3.47;1.80;;;;;;;12.34;100.00;97066.41;4482759;32;20092;-80
2023/10/26 05:06:51;;;;;;;8.30;3.00;;;;;;;12.34;100.00;97060.31;4484859;31;20112;-80
2023/10/26 05:09:18;;;;;;;7.22;1.83;;;;;;;12.36;100.00;97067.00;4484583;31;20543;-80
2023/10/26 05:11:48;;;;;;;5.68;1.70;;;;;;;12.43;100.00;97064.44;4479304;31;20096;-80
2023/10/26 05:14:18;;;;;;;4.60;1.77;;;;;;;12.53;100.00;97058.84;4484075;31;20167;-80
2023/10/26 05:16:45;;;;;;;2.28;1.45;;;;;;;12.52;100.00;97062.47;4475100;32;20143;-80
2023/10/26 05:19:12;;;;;;;8.20;2.10;;;;;;;12.56;100.00;97061.09;4476455;32;20092;-80
2023/10/26 05:21:39;;;;;;;4.85;1.83;;;;;;;12.63;100.00;97069.00;4477382;32;20096;-81
2023/10/26 05:24:09;;;;;;;6.00;1.87;;;;;;;12.64;100.00;97070.62;4477066;32;20118;-79
2023/10/26 05:26:37;;;;;;;6.00;1.73;;;;;;;12.62;100.00;97072.66;4476477;32;20118;-81
2023/10/26 05:29:05;;;;;;;4.20;1.77;;;;;;;12.60;100.00;97071.03;4476890;32;20173;-80
2023/10/26 05:31:32;;;;;;;6.32;2.10;;;;;;;12.53;100.00;97070.16;4476852;31;20101;-79
2023/10/26 05:33:59;;;;;;;6.22;1.73;;;;;;;12.60;100.00;97073.66;4476274;32;76069;-80
2023/10/26 05:36:27;;;;;;;2.78;1.75;;;;;;;12.68;100.00;97067.44;4476329;32;20194;-80
2023/10/26 05:38:55;;;;;;;2.83;2.50;;;;;;;12.78;100.00;97069.72;4476998;32;20089;-81
2023/10/26 05:41:22;;;;;;;7.53;2.17;;;;;;;12.72;100.00;97067.88;4480371;32;20100;-78
2023/10/26 05:43:50;;;;;;;4.50;2.10;;;;;;;12.77;100.00;97075.97;4479462;31;20111;-80
2023/10/26 05:46:18;;;;;;;7.75;1.92;;;;;;;12.75;100.00;97078.81;4483091;32;20435;-81
2023/10/26 05:48:45;;;;;;;3.58;2.10;;;;;;;12.85;100.00;97069.75;4483057;31;20164;-79
2023/10/26 05:51:13;;;;;;;5.87;2.35;;;;;;;12.85;100.00;97061.88;4482709;31;20104;-77
2023/10/26 05:53:41;;;;;;;4.07;2.58;;;;;;;12.76;100.00;97077.81;4474159;31;20176;-79
2023/10/26 05:56:10;;;;;;;4.65;2.00;;;;;;;12.79;100.00;97087.09;4471310;31;20100;-79
2023/10/26 05:58:37;;;;;;;4.97;2.30;;;;;;;12.88;100.00;97091.19;4472134;32;20109;-79
2023/10/26 06:01:05;;;;;;;10.93;2.50;;;;;;;12.84;100.00;97107.53;4473002;32;20158;-78
2023/10/26 06:03:32;;;;;;;5.80;2.50;;;;;;;12.88;100.00;97109.59;4481567;32;20390;-77
2023/10/26 06:06:00;;;;;;;5.30;2.90;;;;;;;13.00;100.00;97117.75;4462456;32;20118;-77
2023/10/26 06:08:32;;;;;;;4.32;2.20;;;;;;;12.95;100.00;97128.84;4470350;32;20168;-77
2023/10/26 06:10:59;;;;;;;5.15;2.15;;;;;;;13.00;100.00;97124.84;4468304;32;20112;-76
2023/10/26 06:13:27;;;;;;;6.97;2.22;;;;;;;13.02;100.00;97123.66;4470548;32;20444;-75
2023/10/26 06:15:54;;;;;;;6.12;2.22;;;;;;;13.02;100.00;97120.19;4475270;31;20104;-74
2023/10/26 06:18:21;;;;;;;9.32;2.33;;;;;;;13.01;100.00;97123.84;4471801;32;20909;-74
2023/10/26 06:20:59;;;;;;;7.65;2.00;;;;;;;12.99;100.00;97131.09;4471954;32;20126;-74
2023/10/26 06:23:29;;;;;;;6.97;2.50;;;;;;;12.98;100.00;97137.38;4468007;32;20666;-76
2023/10/26 06:25:58;;;;;;;5.93;2.55;;;;;;;12.92;100.00;97152.09;4473190;32;20113;-75
2023/10/26 06:28:28;;;;;;;3.75;2.37;;;;;;;12.94;100.00;97150.06;4471441;32;20108;-74
2023/10/26 06:30:56;;;;;;;9.20;3.05;;;;;;;12.93;100.00;97151.09;4465244;32;20910;-73
2023/10/26 06:33:25;;;;;;;5.45;2.40;;;;;;;13.09;100.00;97139.44;4467718;32;20112;-74
2023/10/26 06:35:52;;;;;;;7.05;3.12;;;;;;;13.15;100.00;97125.53;4471155;32;20144;-75
2023/10/26 06:38:19;;;;;;;5.65;2.80;;;;;;;13.01;100.00;97134.34;4472037;32;20081;-76
2023/10/26 06:40:48;;;;;;;6.75;3.05;;;;;;;13.01;100.00;97134.34;4468174;31;20173;-75
2023/10/26 06:43:17;;;;;;;3.87;2.87;;;;;;;12.99;100.00;97142.44;4467013;32;20138;-75
2023/10/26 06:45:44;;;;;;;6.37;3.17;;;;;;;13.12;100.00;97146.94;4468142;32;20084;-75
2023/10/26 06:48:11;;;;;;;8.23;3.53;;;;;;;13.05;100.00;97146.09;4470029;32;20544;-75
2023/10/26 06:50:42;;;;;;;6.75;3.60;;;;;;;13.18;100.00;97148.81;4469119;31;20108;-75
2023/10/26 06:53:12;;;;;;;9.05;3.67;;;;;;;12.98;100.00;97155.78;4466977;32;20088;-76
2023/10/26 06:55:41;;;;;;;10.00;4.30;;;;;;;13.02;100.00;97154.38;4472886;32;20103;-75
2023/10/26 06:58:08;;;;;;;6.43;3.62;;;;;;;13.10;100.00;97151.59;4468805;32;20144;-74
2023/10/26 07:00:35;;;;;;;7.40;4.00;;;;;;;13.05;100.00;97151.34;4468483;32;20105;-76
2023/10/26 07:03:03;;;;;;;6.05;4.18;;;;;;;13.27;100.00;97147.62;4466500;32;20115;-77
2023/10/26 07:05:33;;;;;;;8.43;4.35;;;;;;;13.22;100.00;97157.13;4469114;32;20131;-76
2023/10/26 07:08:01;;;;;;;7.72;4.55;;;;;;;13.21;100.00;97161.56;4471173;32;20723;-76
2023/10/26 07:10:28;;;;;;;9.52;4.65;;;;;;;13.17;100.00;97165.59;4473707;31;20097;-77
2023/10/26 07:12:56;;;;;;;13.52;5.28;;;;;;;13.21;100.00;97158.94;4474930;31;20117;-77
2023/10/26 07:15:23;;;;;;;11.05;5.37;;;;;;;13.19;100.00;97168.84;4472096;32;20108;-77
2023/10/26 07:17:50;;;;;;;11.65;6.25;;;;;;;13.30;100.00;97175.38;4471295;32;20098;-76
2023/10/26 07:20:17;;;;;;;12.32;5.95;;;;;;;13.23;100.00;97174.53;4474151;31;20105;-78
2023/10/26 07:22:58;;;;;;;14.65;6.10;;;;;;;13.29;100.00;97168.47;4476284;32;20149;-79
2023/10/26 07:25:26;;;;;;;10.25;5.80;;;;;;;13.25;100.00;97167.25;4474894;32;20552;-79
2023/10/26 07:27:53;;;;;;;12.80;6.20;;;;;;;13.27;100.00;97152.91;4474852;32;20096;-78
2023/10/26 07:30:20;;;;;;;12.32;6.00;;;;;;;13.31;100.00;97153.34;4472777;32;20105;-78
2023/10/26 07:32:48;;;;;;;12.18;5.20;;;;;;;13.42;100.00;97144.91;4473140;31;20092;-78
2023/10/26 07:35:16;;;;;;;13.07;5.65;;;;;;;13.42;100.00;97152.81;4473647;32;20112;-77
2023/10/26 07:37:48;;;;;;;10.80;6.18;;;;;;;13.56;100.00;97161.56;4471790;32;20093;-76
2023/10/26 07:40:38;;;;;;;7.75;4.55;;;;;;;13.74;100.00;97168.13;4473011;32;20161;-73
2023/10/26 07:43:05;;;;;;;9.73;5.15;;;;;;;13.84;100.00;97163.31;4468347;32;20089;-76
2023/10/26 07:45:32;;;;;;;11.05;5.43;;;;;;;13.89;100.00;97167.97;4471772;32;21800;-76
2023/10/26 07:48:00;;;;;;;8.10;5.32;;;;;;;13.87;100.00;97175.25;4474074;32;20111;-76
2023/10/26 07:50:29;;;;;;;10.75;5.70;;;;;;;13.83;100.00;97180.09;4469082;32;20127;-75
2023/10/26 07:52:57;;;;;;;8.68;5.53;;;;;;;13.74;100.00;97181.28;4468647;32;20088;-74
2023/10/26 07:55:25;;;;;;;8.50;4.95;;;;;;;13.65;100.00;97180.63;4472324;32;20119;-75
2023/10/26 07:57:53;;;;;;;8.95;5.20;;;;;;;13.78;100.00;97174.63;4473636;31;20838;-74
2023/10/26 08:00:21;;;;;;;11.12;5.53;;;;;;;13.79;100.00;97179.69;4468926;32;20463;-75
2023/10/26 08:02:52;;;;;;;13.68;5.78;;;;;;;13.86;100.00;97190.25;4462739;32;20084;-76
2023/10/26 08:05:25;;;;;;;11.68;5.53;;;;;;;13.97;100.00;97186.22;4472762;32;20440;-75
2023/10/26 08:07:52;;;;;;;10.50;6.35;;;;;;;13.96;100.00;97188.06;4468751;31;20524;-74
2023/10/26 08:10:20;;;;;;;8.18;5.07;;;;;;;13.90;100.00;97199.38;4472238;32;20093;-76
2023/10/26 08:12:52;;;;;;;8.63;5.25;;;;;;;13.93;100.00;97196.34;4472769;32;20101;-75
2023/10/26 08:15:20;;;;;;;10.35;5.53;;;;;;;14.09;100.00;97203.06;4472023;32;20092;-75
2023/10/26 08:18:08;;;;;;;11.23;5.72;;;;;;;14.17;100.00;97205.53;4471070;32;20564;-76
2023/10/26 08:20:36;;;;;;;9.80;5.95;;;;;;;14.15;100.00;97215.44;4472267;32;20489;-76
2023/10/26 08:23:04;;;;;;;12.98;6.37;;;;;;;14.05;100.00;97222.91;4469832;32;20111;-79
2023/10/26 08:25:36;;;;;;;12.13;6.47;;;;;;;13.93;100.00;97216.56;4462832;32;20095;-78
2023/10/26 08:28:05;;;;;;;14.27;7.37;;;;;;;13.97;100.00;97216.00;4471259;32;20081;-77
2023/10/26 08:30:32;;;;;;;11.27;6.85;;;;;;;13.94;100.00;97213.75;4467745;32;20162;-76
2023/10/26 08:33:04;;;;;;;14.30;6.75;;;;;;;14.09;100.00;97215.44;4473003;32;20100;-77
2023/10/26 08:35:32;;;;;;;12.80;7.68;;;;;;;14.09;100.00;97202.25;4470663;31;20469;-75
2023/10/26 08:37:59;;;;;;;12.37;6.80;;;;;;;14.19;100.00;97210.59;4469943;32;20144;-75
2023/10/26 08:40:26;;;;;;;14.25;7.40;;;;;;;14.29;100.00;97215.47;4471294;32;20159;-75
2023/10/26 08:42:56;;;;;;;15.57;7.93;;;;;;;14.29;100.00;97211.03;4471336;32;20449;-77
2023/10/26 08:45:26;;;;;;;16.48;7.43;;;;;;;14.26;100.00;97206.16;4465809;31;20104;-79
2023/10/26 08:47:55;;;;;;;13.52;6.90;;;;;;;14.43;100.00;97205.78;4472625;32;20088;-78
2023/10/26 08:50:23;;;;;;;15.52;7.75;;;;;;;14.58;100.00;97209.06;4467496;32;20728;-77
2023/10/26 08:52:53;;;;;;;15.88;7.68;;;;;;;14.61;100.00;97213.13;4471791;32;20131;-77
2023/10/26 08:55:21;;;;;;;13.27;7.70;;;;;;;14.90;100.00;97211.94;4472343;32;20167;-77
2023/10/26 08:57:51;;;;;;;12.15;7.53;;;;;;;15.00;100.00;97211.53;4466583;32;20109;-77
2023/10/26 09:00:22;;;;;;;14.43;8.48;;;;;;;15.12;100.00;97214.34;4473676;32;20100;-77
2023/10/26 09:02:52;;;;;;;14.48;7.97;;;;;;;15.22;100.00;97212.94;4470875;31;20108;-75
2023/10/26 09:05:21;;;;;;;15.70;9.07;;;;;;;15.33;100.00;97222.03;4470823;32;20118;-75
2023/10/26 09:07:54;;;;;;;13.23;8.27;;;;;;;15.50;100.00;97222.41;4468102;31;20104;-75
2023/10/26 09:10:32;;;;;;;15.75;8.35;;;;;;;15.90;100.00;97213.59;4473045;32;20134;-75
2023/10/26 09:13:05;;;;;;;13.30;8.32;;;;;;;15.92;100.00;97219.47;4468057;32;20088;-76
2023/10/26 09:15:48;;;;;;;18.42;8.43;;;;;;;16.07;100.00;97232.41;4469108;32;20112;-75
2023/10/26 09:18:16;;;;;;;15.65;8.70;;;;;;;16.08;100.00;97234.84;4466299;32;20196;-76
2023/10/26 09:21:04;;;;;;;16.17;8.77;;;;;;;16.29;100.00;97239.00;4470408;32;20093;-75
2023/10/26 09:23:33;;;;;;;16.20;9.27;;;;;;;16.71;100.00;97243.03;4473178;32;20104;-76
2023/10/26 09:26:04;;;;;;;14.93;8.20;;;;;;;16.81;100.00;97238.09;4469744;32;20100;-76
2023/10/26 09:28:53;;;;;;;15.43;8.20;;;;;;;16.71;100.00;97238.53;4473866;32;20092;-75
2023/10/26 09:31:24;;;;;;;14.75;8.02;;;;;;;16.68;100.00;97244.25;4470172;32;20093;-76
2023/10/26 09:33:51;;;;;;;14.80;8.43;;;;;;;16.58;100.00;97251.84;4472473;32;20114;-77
2023/10/26 09:36:20;;;;;;;16.62;8.30;;;;;;;16.66;100.00;97251.59;4473686;32;20092;-77
2023/10/26 09:38:48;;;;;;;15.30;8.15;;;;;;;16.57;100.00;97251.03;4469358;32;20136;-75
2023/10/26 09:41:25;;;;;;;16.70;7.93;;;;;;;16.49;100.00;97256.59;4469760;31;20270;-76
2023/10/26 09:43:53;;;;;;;16.50;9.40;;;;;;;16.56;100.00;97245.97;4471123;31;20096;-76
2023/10/26 09:46:26;;;;;;;14.70;7.95;;;;;;;16.55;100.00;97244.34;4470362;32;20088;-76
2023/10/26 09:48:57;;;;;;;17.77;8.23;;;;;;;16.86;100.00;97246.16;4473239;32;20088;-75
2023/10/26 09:51:26;;;;;;;14.07;7.82;;;;;;;16.94;100.00;97237.19;4471984;32;20187;-75
2023/10/26 09:53:54;;;;;;;14.90;8.00;;;;;;;16.82;100.00;97243.16;4475401;31;20115;-76
2023/10/26 09:56:25;;;;;;;12.57;7.78;;;;;;;16.83;100.00;97241.31;4472098;32;20135;-76
2023/10/26 09:59:01;;;;;;;14.05;7.78;;;;;;;16.91;100.00;97234.97;4466943;32;20225;-75
2023/10/26 10:01:37;;;;;;;14.55;7.57;;;;;;;17.17;100.00;97228.69;4465143;32;21761;-76
2023/10/26 10:04:09;;;;;;;18.77;9.43;;;;;;;17.25;100.00;97228.38;4468825;31;20123;-79
2023/10/26 10:06:51;;;;;;;9.02;6.25;;;;;;;17.34;100.00;97227.06;4468475;32;20171;-78
2023/10/26 10:09:24;;;;;;;9.98;6.03;;;;;;;17.00;100.00;97228.38;4480982;32;20117;-78
2023/10/26 10:12:13;;;;;;;9.60;6.28;;;;;;;17.12;100.00;97217.91;4474324;32;20762;-77
2023/10/26 10:14:47;;;;;;;8.30;5.57;;;;;;;17.02;100.00;97215.78;4470336;32;20084;-76
2023/10/26 10:17:14;;;;;;;7.60;5.57;;;;;;;16.91;100.00;97211.16;4477595;32;20137;-75
2023/10/26 10:20:17;;;;;;;11.45;6.43;;;;;;;17.23;100.00;97219.03;4475615;32;20084;-76
2023/10/26 10:22:45;;;;;;;7.72;4.60;;;;;;;17.43;100.00;97216.22;4433232;32;20295;-76
2023/10/26 10:25:19;;;;;;;6.75;3.72;;;;;;;17.66;100.00;97208.41;4429917;32;20162;-77
2023/10/26 10:27:48;;;;;;;12.30;3.65;;;;;;;17.66;99.93;97204.97;4428284;32;20109;-77
2023/10/26 10:30:21;;;;;;;4.47;3.08;;;;;;;17.55;100.00;97202.00;4425292;32;20303;-77
2023/10/26 10:32:52;;;;;;;5.43;2.75;;;;;;;17.75;97.99;97208.94;4428949;32;20102;-76
2023/10/26 10:35:43;;;;;;;6.15;3.08;;;;;;;18.07;96.56;97208.78;4411840;32;20191;-79
2023/10/26 10:38:13;;;;;;;5.47;3.50;;;;;;;18.43;94.93;97207.88;4433629;32;20872;-79
2023/10/26 10:40:54;;;;;;;7.18;3.12;;;;;;;18.66;90.88;97206.31;4421861;32;20098;-78
2023/10/26 10:43:40;;;;;;;5.15;3.50;;;;;;;18.74;92.71;97207.81;4432497;32;20126;-77
2023/10/26 10:46:18;;;;;;;11.95;2.87;;;;;;;18.88;91.63;97206.63;4431768;32;20105;-78
2023/10/26 10:48:56;;;;;;;6.65;3.08;;;;;;;18.68;88.99;97203.44;4434392;32;20127;-77
2023/10/26 10:51:31;;;;;;;4.93;3.00;;;;;;;18.58;88.15;97194.19;4433421;32;20182;-78
2023/10/26 10:54:00;;;;;;;7.87;2.10;;;;;;;18.86;88.07;97199.94;4435974;32;20278;-77
2023/10/26 10:56:46;;;;;;;5.87;2.08;;;;;;;19.08;85.46;97208.94;4430931;32;20096;-78
2023/10/26 10:59:26;;;;;;;3.72;2.15;;;;;;;19.22;84.55;97222.00;4442059;32;20201;-76
2023/10/26 11:02:13;;;;;;;3.72;2.03;;;;;;;19.20;80.70;97216.09;4484241;32;20535;-77
2023/10/26 11:04:56;;;;;;;2.62;1.23;;;;;;;19.00;81.59;97219.91;4472155;32;20093;-77
2023/10/26 11:07:41;;;;;;;6.40;1.83;;;;;;;18.89;80.12;97204.78;4487813;31;20453;-75
2023/10/26 11:10:09;;;;;;;2.87;1.77;;;;;;;18.82;78.13;97204.84;4487199;31;20139;-76
2023/10/26 11:12:37;;;;;;;3.12;1.90;;;;;;;18.78;79.69;97203.69;4483681;32;20104;-78
2023/10/26 11:15:06;;;;;;;3.20;2.00;;;;;;;18.85;80.21;97192.97;4484592;32;20442;-77
2023/10/26 11:17:39;;;;;;;3.78;1.87;;;;;;;18.68;79.87;97193.63;4479438;32;20557;-77
2023/10/26 11:20:40;;;;;;;5.78;3.12;;;;;;;18.71;82.67;97187.06;4476389;32;20127;-77
2023/10/26 11:23:08;;;;;;;2.05;1.48;;;;;;;19.06;79.62;97191.62;4477201;32;20079;-77
2023/10/26 11:25:37;;;;;;;5.87;1.42;;;;;;;19.17;78.59;97187.34;4484773;31;20461;-77
2023/10/26 11:28:06;;;;;;;2.03;1.40;;;;;;;19.30;78.42;97184.47;4477728;32;20117;-77
2023/10/26 11:30:46;;;;;;;3.40;1.70;;;;;;;19.39;76.87;97187.56;4484451;31;20175;-77
2023/10/26 11:33:33;;;;;;;3.15;1.52;;;;;;;19.41;75.87;97186.31;4475629;32;20088;-77
2023/10/26 11:36:07;;;;;;;2.12;1.50;;;;;;;19.26;76.49;97181.47;4483035;32;20147;-77